sensor_id;sensor_type;location;lat;lon;timestamp;temperature;humidity
6018;DHT22;3037;51.068;13.780;2023-04-16T00:02:16;7.10;99.90
6018;DHT22;3037;51.068;13.780;2023-04-16T00:04:41;7.20;99.90
6018;DHT22;3037;51.068;13.780;2023-04-16T00:07:07;7.20;99.90
6018;DHT22;3037;51.068;13.780;2023-04-16T00:09:32;7.30;99.90
6018;DHT22;3037;51.068;13.780;2023-04-16T00:11:58;7.20;99.90
6018;DHT22;3037;51.068;13.780;2023-04-16T00:14:24;7.20;99.90
6018;DHT22;3037;51.068;13.780;2023-04-16T00:16:49;7.10;99.90
6018;DHT22;3037;51.068;13.780;2023-04-16T00:19:15;7.00;99.90
6018;DHT22;3037;51.068;13.780;2023-04-16T00:21:40;7.00;99.90
6018;DHT22;3037;51.068;13.780;2023-04-16T00:24:06;7.00;99.90
6018;DHT22;3037;51.068;13.780;2023-04-16T00:26:31;6.80;99.90
6018;DHT22;3037;51.068;13.780;2023-04-16T00:28:57;6.80;99.90
6018;DHT22;3037;51.068;13.780;2023-04-16T00:31:29;6.90;99.90
6018;DHT22;3037;51.068;13.780;2023-04-16T00:33:55;6.80;99.90
6018;DHT22;3037;51.068;13.780;2023-04-16T00:36:25;6.90;99.90
6018;DHT22;3037;51.068;13.780;2023-04-16T00:38:55;6.90;99.90
6018;DHT22;3037;51.068;13.780;2023-04-16T00:41:21;6.80;99.90
6018;DHT22;3037;51.068;13.780;2023-04-16T00:43:47;6.70;99.90
6018;DHT22;3037;51.068;13.780;2023-04-16T00:46:14;6.60;99.90
6018;DHT22;3037;51.068;13.780;2023-04-16T00:48:42;6.70;99.90
6018;DHT22;3037;51.068;13.780;2023-04-16T00:51:08;6.60;99.90
6018;DHT22;3037;51.068;13.780;2023-04-16T00:53:35;6.60;99.90
6018;DHT22;3037;51.068;13.780;2023-04-16T00:56:02;6.70;99.90
6018;DHT22;3037;51.068;13.780;2023-04-16T00:58:29;6.60;99.90
6018;DHT22;3037;51.068;13.780;2023-04-16T01:00:54;6.50;99.90
6018;DHT22;3037;51.068;13.780;2023-04-16T01:03:21;6.50;99.90
6018;DHT22;3037;51.068;13.780;2023-04-16T01:05:46;6.40;99.90
6018;DHT22;3037;51.068;13.780;2023-04-16T01:08:17;6.40;99.90
6018;DHT22;3037;51.068;13.780;2023-04-16T01:10:43;6.60;99.90
6018;DHT22;3037;51.068;13.780;2023-04-16T01:13:09;6.50;99.90
6018;DHT22;3037;51.068;13.780;2023-04-16T01:15:35;6.60;99.90
6018;DHT22;3037;51.068;13.780;2023-04-16T01:18:01;6.80;99.90
6018;DHT22;3037;51.068;13.780;2023-04-16T01:20:27;6.70;99.90
6018;DHT22;3037;51.068;13.780;2023-04-16T01:22:52;7.10;99.90
6018;DHT22;3037;51.068;13.780;2023-04-16T01:25:18;6.60;99.90
6018;DHT22;3037;51.068;13.780;2023-04-16T01:27:43;6.50;99.90
6018;DHT22;3037;51.068;13.780;2023-04-16T01:30:09;6.40;99.90
6018;DHT22;3037;51.068;13.780;2023-04-16T01:32:35;6.40;99.90
6018;DHT22;3037;51.068;13.780;2023-04-16T01:35:00;6.40;99.90
6018;DHT22;3037;51.068;13.780;2023-04-16T01:37:26;6.30;99.90
6018;DHT22;3037;51.068;13.780;2023-04-16T01:39:51;6.30;99.90
6018;DHT22;3037;51.068;13.780;2023-04-16T01:42:17;6.30;99.90
6018;DHT22;3037;51.068;13.780;2023-04-16T01:44:42;6.40;99.90
6018;DHT22;3037;51.068;13.780;2023-04-16T01:47:08;6.30;99.90
6018;DHT22;3037;51.068;13.780;2023-04-16T01:49:33;6.20;99.90
6018;DHT22;3037;51.068;13.780;2023-04-16T01:51:59;6.10;99.90
6018;DHT22;3037;51.068;13.780;2023-04-16T01:54:25;6.00;99.90
6018;DHT22;3037;51.068;13.780;2023-04-16T01:56:50;6.00;99.90
6018;DHT22;3037;51.068;13.780;2023-04-16T01:59:16;6.00;99.90
6018;DHT22;3037;51.068;13.780;2023-04-16T02:01:41;5.90;99.90
6018;DHT22;3037;51.068;13.780;2023-04-16T02:04:07;5.90;99.90
6018;DHT22;3037;51.068;13.780;2023-04-16T02:06:33;5.90;99.90
6018;DHT22;3037;51.068;13.780;2023-04-16T02:08:58;5.90;99.90
6018;DHT22;3037;51.068;13.780;2023-04-16T02:11:24;5.80;99.90
6018;DHT22;3037;51.068;13.780;2023-04-16T02:13:50;5.80;99.90
6018;DHT22;3037;51.068;13.780;2023-04-16T02:16:16;5.80;99.90
6018;DHT22;3037;51.068;13.780;2023-04-16T02:18:41;5.80;99.90
6018;DHT22;3037;51.068;13.780;2023-04-16T02:21:07;5.80;99.90
6018;DHT22;3037;51.068;13.780;2023-04-16T02:23:32;5.80;99.90
6018;DHT22;3037;51.068;13.780;2023-04-16T02:25:58;5.70;99.90
6018;DHT22;3037;51.068;13.780;2023-04-16T02:28:23;5.60;99.90
6018;DHT22;3037;51.068;13.780;2023-04-16T02:30:49;5.60;99.90
6018;DHT22;3037;51.068;13.780;2023-04-16T02:33:14;5.50;99.90
6018;DHT22;3037;51.068;13.780;2023-04-16T02:35:40;5.60;99.90
6018;DHT22;3037;51.068;13.780;2023-04-16T02:38:06;5.60;99.90
6018;DHT22;3037;51.068;13.780;2023-04-16T02:40:32;5.60;99.90
6018;DHT22;3037;51.068;13.780;2023-04-16T02:42:57;5.50;99.90
6018;DHT22;3037;51.068;13.780;2023-04-16T02:45:23;5.50;99.90
6018;DHT22;3037;51.068;13.780;2023-04-16T02:47:49;5.50;99.90
6018;DHT22;3037;51.068;13.780;2023-04-16T02:50:15;5.40;99.90
6018;DHT22;3037;51.068;13.780;2023-04-16T02:52:41;5.40;99.90
6018;DHT22;3037;51.068;13.780;2023-04-16T02:55:07;5.40;99.90
6018;DHT22;3037;51.068;13.780;2023-04-16T02:57:33;5.40;99.90
6018;DHT22;3037;51.068;13.780;2023-04-16T02:59:58;5.40;99.90
6018;DHT22;3037;51.068;13.780;2023-04-16T03:02:24;5.30;99.90
6018;DHT22;3037;51.068;13.780;2023-04-16T03:04:50;5.10;99.90
6018;DHT22;3037;51.068;13.780;2023-04-16T03:07:16;5.40;99.90
6018;DHT22;3037;51.068;13.780;2023-04-16T03:09:43;5.30;99.90
6018;DHT22;3037;51.068;13.780;2023-04-16T03:12:08;5.30;99.90
6018;DHT22;3037;51.068;13.780;2023-04-16T03:14:34;5.10;99.90
6018;DHT22;3037;51.068;13.780;2023-04-16T03:17:00;5.10;99.90
6018;DHT22;3037;51.068;13.780;2023-04-16T03:19:25;5.10;99.90
6018;DHT22;3037;51.068;13.780;2023-04-16T03:21:51;5.10;99.90
6018;DHT22;3037;51.068;13.780;2023-04-16T03:24:16;5.10;99.90
6018;DHT22;3037;51.068;13.780;2023-04-16T03:26:42;5.40;99.90
6018;DHT22;3037;51.068;13.780;2023-04-16T03:29:07;5.30;99.90
6018;DHT22;3037;51.068;13.780;2023-04-16T03:31:33;5.60;99.90
6018;DHT22;3037;51.068;13.780;2023-04-16T03:33:58;5.10;99.90
6018;DHT22;3037;51.068;13.780;2023-04-16T03:36:24;4.90;99.90
6018;DHT22;3037;51.068;13.780;2023-04-16T03:38:51;5.10;99.90
6018;DHT22;3037;51.068;13.780;2023-04-16T03:41:17;5.00;99.90
6018;DHT22;3037;51.068;13.780;2023-04-16T03:43:42;5.00;99.90
6018;DHT22;3037;51.068;13.780;2023-04-16T03:46:08;4.80;99.90
6018;DHT22;3037;51.068;13.780;2023-04-16T03:48:33;4.60;99.90
6018;DHT22;3037;51.068;13.780;2023-04-16T03:50:59;4.60;99.90
6018;DHT22;3037;51.068;13.780;2023-04-16T03:53:24;4.60;99.90
6018;DHT22;3037;51.068;13.780;2023-04-16T03:55:50;4.70;99.90
6018;DHT22;3037;51.068;13.780;2023-04-16T03:58:17;4.60;99.90
6018;DHT22;3037;51.068;13.780;2023-04-16T04:00:42;4.50;99.90
6018;DHT22;3037;51.068;13.780;2023-04-16T04:03:09;4.60;99.90
6018;DHT22;3037;51.068;13.780;2023-04-16T04:05:36;4.50;99.90
6018;DHT22;3037;51.068;13.780;2023-04-16T04:08:02;4.50;99.90
6018;DHT22;3037;51.068;13.780;2023-04-16T04:10:30;4.40;99.90
6018;DHT22;3037;51.068;13.780;2023-04-16T04:12:55;4.40;99.90
6018;DHT22;3037;51.068;13.780;2023-04-16T04:15:21;4.50;99.90
6018;DHT22;3037;51.068;13.780;2023-04-16T04:17:46;4.60;99.90
6018;DHT22;3037;51.068;13.780;2023-04-16T04:20:12;4.60;99.90
6018;DHT22;3037;51.068;13.780;2023-04-16T04:22:37;4.60;99.90
6018;DHT22;3037;51.068;13.780;2023-04-16T04:25:03;4.50;99.90
6018;DHT22;3037;51.068;13.780;2023-04-16T04:27:29;4.50;99.90
6018;DHT22;3037;51.068;13.780;2023-04-16T04:29:55;4.50;99.90
6018;DHT22;3037;51.068;13.780;2023-04-16T04:32:20;4.50;99.90
6018;DHT22;3037;51.068;13.780;2023-04-16T04:34:46;4.40;99.90
6018;DHT22;3037;51.068;13.780;2023-04-16T04:37:11;4.40;99.90
6018;DHT22;3037;51.068;13.780;2023-04-16T04:39:37;4.50;99.90
6018;DHT22;3037;51.068;13.780;2023-04-16T04:42:02;4.50;99.90
6018;DHT22;3037;51.068;13.780;2023-04-16T04:44:28;4.40;99.90
6018;DHT22;3037;51.068;13.780;2023-04-16T04:46:54;4.50;99.90
6018;DHT22;3037;51.068;13.780;2023-04-16T04:49:19;4.50;99.90
6018;DHT22;3037;51.068;13.780;2023-04-16T04:51:45;4.60;99.90
6018;DHT22;3037;51.068;13.780;2023-04-16T04:54:10;4.60;99.90
6018;DHT22;3037;51.068;13.780;2023-04-16T04:56:36;4.70;99.90
6018;DHT22;3037;51.068;13.780;2023-04-16T04:59:01;4.80;99.90
6018;DHT22;3037;51.068;13.780;2023-04-16T05:01:27;4.70;99.90
6018;DHT22;3037;51.068;13.780;2023-04-16T05:03:52;4.80;99.90
6018;DHT22;3037;51.068;13.780;2023-04-16T05:06:18;4.80;99.90
6018;DHT22;3037;51.068;13.780;2023-04-16T05:08:43;4.90;99.90
6018;DHT22;3037;51.068;13.780;2023-04-16T05:11:09;4.90;99.90
6018;DHT22;3037;51.068;13.780;2023-04-16T05:13:35;5.00;99.90
6018;DHT22;3037;51.068;13.780;2023-04-16T05:16:00;5.00;99.90
6018;DHT22;3037;51.068;13.780;2023-04-16T05:18:26;5.00;99.90
6018;DHT22;3037;51.068;13.780;2023-04-16T05:20:52;5.10;99.90
6018;DHT22;3037;51.068;13.780;2023-04-16T05:23:17;5.30;99.90
6018;DHT22;3037;51.068;13.780;2023-04-16T05:25:43;5.10;99.90
6018;DHT22;3037;51.068;13.780;2023-04-16T05:28:09;5.10;99.90
6018;DHT22;3037;51.068;13.780;2023-04-16T05:30:35;5.20;99.90
6018;DHT22;3037;51.068;13.780;2023-04-16T05:33:00;5.30;99.90
6018;DHT22;3037;51.068;13.780;2023-04-16T05:35:26;5.30;99.90
6018;DHT22;3037;51.068;13.780;2023-04-16T05:37:52;5.50;99.90
6018;DHT22;3037;51.068;13.780;2023-04-16T05:40:17;5.60;99.90
6018;DHT22;3037;51.068;13.780;2023-04-16T05:42:43;5.60;99.90
6018;DHT22;3037;51.068;13.780;2023-04-16T05:45:08;5.70;99.90
6018;DHT22;3037;51.068;13.780;2023-04-16T05:47:34;5.90;99.90
6018;DHT22;3037;51.068;13.780;2023-04-16T05:50:00;6.00;99.90
6018;DHT22;3037;51.068;13.780;2023-04-16T05:52:25;6.00;99.90
6018;DHT22;3037;51.068;13.780;2023-04-16T05:54:51;6.00;99.90
6018;DHT22;3037;51.068;13.780;2023-04-16T05:57:16;6.20;99.90
6018;DHT22;3037;51.068;13.780;2023-04-16T05:59:42;6.30;99.90
6018;DHT22;3037;51.068;13.780;2023-04-16T06:02:07;6.40;99.90
6018;DHT22;3037;51.068;13.780;2023-04-16T06:04:33;6.70;99.90
6018;DHT22;3037;51.068;13.780;2023-04-16T06:07:00;6.80;99.90
6018;DHT22;3037;51.068;13.780;2023-04-16T06:09:25;7.00;99.90
6018;DHT22;3037;51.068;13.780;2023-04-16T06:11:51;7.10;99.90
6018;DHT22;3037;51.068;13.780;2023-04-16T06:14:17;7.60;99.90
6018;DHT22;3037;51.068;13.780;2023-04-16T06:16:42;7.80;99.90
6018;DHT22;3037;51.068;13.780;2023-04-16T06:19:08;8.10;7.30
6018;DHT22;3037;51.068;13.780;2023-04-16T06:21:33;8.20;1.00
6018;DHT22;3037;51.068;13.780;2023-04-16T06:23:59;8.30;1.00
6018;DHT22;3037;51.068;13.780;2023-04-16T06:26:25;8.70;1.00
6018;DHT22;3037;51.068;13.780;2023-04-16T06:28:51;8.90;1.00
6018;DHT22;3037;51.068;13.780;2023-04-16T06:31:17;9.00;1.00
6018;DHT22;3037;51.068;13.780;2023-04-16T06:33:42;9.30;1.00
6018;DHT22;3037;51.068;13.780;2023-04-16T06:36:07;9.40;99.90
6018;DHT22;3037;51.068;13.780;2023-04-16T06:38:35;9.60;77.50
6018;DHT22;3037;51.068;13.780;2023-04-16T06:41:01;10.20;99.90
6018;DHT22;3037;51.068;13.780;2023-04-16T06:43:26;10.50;99.90
6018;DHT22;3037;51.068;13.780;2023-04-16T06:45:52;11.00;99.90
6018;DHT22;3037;51.068;13.780;2023-04-16T06:48:17;10.80;19.20
6018;DHT22;3037;51.068;13.780;2023-04-16T06:50:43;10.40;1.00
6018;DHT22;3037;51.068;13.780;2023-04-16T06:53:08;10.50;99.90
6018;DHT22;3037;51.068;13.780;2023-04-16T06:55:34;10.40;99.90
6018;DHT22;3037;51.068;13.780;2023-04-16T06:57:59;10.00;1.00
6018;DHT22;3037;51.068;13.780;2023-04-16T07:00:25;10.20;99.90
6018;DHT22;3037;51.068;13.780;2023-04-16T07:02:51;10.50;1.00
6018;DHT22;3037;51.068;13.780;2023-04-16T07:05:16;10.80;99.90
6018;DHT22;3037;51.068;13.780;2023-04-16T07:07:42;11.00;99.90
6018;DHT22;3037;51.068;13.780;2023-04-16T07:10:07;11.70;1.00
6018;DHT22;3037;51.068;13.780;2023-04-16T07:12:33;11.20;1.00
6018;DHT22;3037;51.068;13.780;2023-04-16T07:14:59;11.10;1.00
6018;DHT22;3037;51.068;13.780;2023-04-16T07:17:24;10.90;1.00
6018;DHT22;3037;51.068;13.780;2023-04-16T07:19:50;11.20;1.00
6018;DHT22;3037;51.068;13.780;2023-04-16T07:22:16;11.70;1.00
6018;DHT22;3037;51.068;13.780;2023-04-16T07:24:42;12.20;1.00
6018;DHT22;3037;51.068;13.780;2023-04-16T07:27:07;12.90;1.00
6018;DHT22;3037;51.068;13.780;2023-04-16T07:29:33;12.90;1.00
6018;DHT22;3037;51.068;13.780;2023-04-16T07:31:58;13.20;99.90
6018;DHT22;3037;51.068;13.780;2023-04-16T07:34:24;13.30;50.10
6018;DHT22;3037;51.068;13.780;2023-04-16T07:36:49;13.10;1.00
6018;DHT22;3037;51.068;13.780;2023-04-16T07:39:15;13.80;1.00
6018;DHT22;3037;51.068;13.780;2023-04-16T07:41:40;13.40;1.00
6018;DHT22;3037;51.068;13.780;2023-04-16T07:44:06;14.00;99.90
6018;DHT22;3037;51.068;13.780;2023-04-16T07:46:32;14.10;1.00
6018;DHT22;3037;51.068;13.780;2023-04-16T07:48:58;14.30;1.00
6018;DHT22;3037;51.068;13.780;2023-04-16T07:51:24;14.30;99.90
6018;DHT22;3037;51.068;13.780;2023-04-16T07:53:50;15.00;99.90
6018;DHT22;3037;51.068;13.780;2023-04-16T07:56:15;14.90;99.90
6018;DHT22;3037;51.068;13.780;2023-04-16T07:58:41;15.10;92.50
6018;DHT22;3037;51.068;13.780;2023-04-16T08:01:06;15.20;93.10
6018;DHT22;3037;51.068;13.780;2023-04-16T08:03:32;15.50;31.40
6018;DHT22;3037;51.068;13.780;2023-04-16T08:05:57;15.60;99.90
6018;DHT22;3037;51.068;13.780;2023-04-16T08:08:23;15.30;8.80
6018;DHT22;3037;51.068;13.780;2023-04-16T08:10:49;15.00;23.70
6018;DHT22;3037;51.068;13.780;2023-04-16T08:13:14;15.30;99.90
6018;DHT22;3037;51.068;13.780;2023-04-16T08:15:40;15.50;45.50
6018;DHT22;3037;51.068;13.780;2023-04-16T08:18:05;16.00;29.30
6018;DHT22;3037;51.068;13.780;2023-04-16T08:20:37;16.50;1.00
6018;DHT22;3037;51.068;13.780;2023-04-16T08:23:02;16.70;99.90
6018;DHT22;3037;51.068;13.780;2023-04-16T08:25:28;16.80;1.00
6018;DHT22;3037;51.068;13.780;2023-04-16T08:27:53;17.70;1.00
6018;DHT22;3037;51.068;13.780;2023-04-16T08:30:19;18.10;1.00
6018;DHT22;3037;51.068;13.780;2023-04-16T08:32:46;18.30;1.00
6018;DHT22;3037;51.068;13.780;2023-04-16T08:35:11;18.50;1.00
6018;DHT22;3037;51.068;13.780;2023-04-16T08:37:37;19.10;1.00
6018;DHT22;3037;51.068;13.780;2023-04-16T08:40:03;19.40;1.00
6018;DHT22;3037;51.068;13.780;2023-04-16T08:42:33;19.80;1.00
6018;DHT22;3037;51.068;13.780;2023-04-16T08:45:13;19.50;1.00
6018;DHT22;3037;51.068;13.780;2023-04-16T08:47:50;19.40;1.00
6018;DHT22;3037;51.068;13.780;2023-04-16T08:50:21;20.10;1.00
6018;DHT22;3037;51.068;13.780;2023-04-16T08:52:58;20.90;1.00
6018;DHT22;3037;51.068;13.780;2023-04-16T08:55:35;20.50;1.00
6018;DHT22;3037;51.068;13.780;2023-04-16T08:58:17;19.90;1.00
6018;DHT22;3037;51.068;13.780;2023-04-16T09:00:43;19.60;1.00
6018;DHT22;3037;51.068;13.780;2023-04-16T09:03:11;19.60;1.00
6018;DHT22;3037;51.068;13.780;2023-04-16T09:05:37;19.60;1.00
6018;DHT22;3037;51.068;13.780;2023-04-16T09:08:06;19.30;1.00
6018;DHT22;3037;51.068;13.780;2023-04-16T09:10:32;19.50;1.00
6018;DHT22;3037;51.068;13.780;2023-04-16T09:12:57;18.80;1.00
6018;DHT22;3037;51.068;13.780;2023-04-16T09:15:23;18.50;1.00
6018;DHT22;3037;51.068;13.780;2023-04-16T09:17:52;18.60;1.00
6018;DHT22;3037;51.068;13.780;2023-04-16T09:20:18;19.00;1.00
6018;DHT22;3037;51.068;13.780;2023-04-16T09:22:44;19.10;1.00
6018;DHT22;3037;51.068;13.780;2023-04-16T09:25:11;18.50;1.00
6018;DHT22;3037;51.068;13.780;2023-04-16T09:27:37;18.50;1.00
6018;DHT22;3037;51.068;13.780;2023-04-16T09:30:29;18.60;1.00
6018;DHT22;3037;51.068;13.780;2023-04-16T09:33:17;19.10;1.00
6018;DHT22;3037;51.068;13.780;2023-04-16T09:35:51;19.10;1.00
6018;DHT22;3037;51.068;13.780;2023-04-16T09:38:18;19.00;1.00
6018;DHT22;3037;51.068;13.780;2023-04-16T09:40:44;18.70;1.00
6018;DHT22;3037;51.068;13.780;2023-04-16T09:43:13;18.80;1.00
6018;DHT22;3037;51.068;13.780;2023-04-16T09:45:53;19.00;1.00
6018;DHT22;3037;51.068;13.780;2023-04-16T09:48:29;18.70;1.00
6018;DHT22;3037;51.068;13.780;2023-04-16T09:50:57;18.90;1.00
6018;DHT22;3037;51.068;13.780;2023-04-16T09:53:27;18.90;1.00
6018;DHT22;3037;51.068;13.780;2023-04-16T09:56:00;18.80;1.00
6018;DHT22;3037;51.068;13.780;2023-04-16T09:58:26;18.30;1.00
6018;DHT22;3037;51.068;13.780;2023-04-16T10:01:00;18.60;1.00
6018;DHT22;3037;51.068;13.780;2023-04-16T10:03:30;19.10;1.00
6018;DHT22;3037;51.068;13.780;2023-04-16T10:06:16;19.30;1.00
6018;DHT22;3037;51.068;13.780;2023-04-16T10:08:50;18.40;1.00
6018;DHT22;3037;51.068;13.780;2023-04-16T10:11:18;18.80;1.00
6018;DHT22;3037;51.068;13.780;2023-04-16T10:13:44;18.50;1.00
6018;DHT22;3037;51.068;13.780;2023-04-16T10:16:10;18.40;1.00
6018;DHT22;3037;51.068;13.780;2023-04-16T10:18:39;18.00;1.00
6018;DHT22;3037;51.068;13.780;2023-04-16T10:21:05;18.20;1.00
6018;DHT22;3037;51.068;13.780;2023-04-16T10:23:31;18.30;1.00
6018;DHT22;3037;51.068;13.780;2023-04-16T10:25:58;18.70;1.00
6018;DHT22;3037;51.068;13.780;2023-04-16T10:28:24;18.80;1.00
6018;DHT22;3037;51.068;13.780;2023-04-16T10:30:51;18.50;1.00
6018;DHT22;3037;51.068;13.780;2023-04-16T10:33:19;18.50;1.00
6018;DHT22;3037;51.068;13.780;2023-04-16T10:35:45;18.60;1.00
6018;DHT22;3037;51.068;13.780;2023-04-16T10:38:24;18.80;1.00
6018;DHT22;3037;51.068;13.780;2023-04-16T10:40:57;18.80;99.90
6018;DHT22;3037;51.068;13.780;2023-04-16T10:43:24;18.80;1.00
6018;DHT22;3037;51.068;13.780;2023-04-16T10:45:52;19.10;1.00
6018;DHT22;3037;51.068;13.780;2023-04-16T10:48:18;19.00;7.40
6018;DHT22;3037;51.068;13.780;2023-04-16T10:50:53;19.00;1.00
6018;DHT22;3037;51.068;13.780;2023-04-16T10:53:25;19.00;1.00
6018;DHT22;3037;51.068;13.780;2023-04-16T10:55:58;18.80;1.00
6018;DHT22;3037;51.068;13.780;2023-04-16T10:58:35;18.00;1.00
6018;DHT22;3037;51.068;13.780;2023-04-16T11:01:06;18.40;1.00
6018;DHT22;3037;51.068;13.780;2023-04-16T11:03:31;18.30;1.00
6018;DHT22;3037;51.068;13.780;2023-04-16T11:06:22;18.80;1.00
6018;DHT22;3037;51.068;13.780;2023-04-16T11:08:50;18.80;1.00
6018;DHT22;3037;51.068;13.780;2023-04-16T11:11:19;18.80;1.00
6018;DHT22;3037;51.068;13.780;2023-04-16T11:13:45;18.50;1.00
6018;DHT22;3037;51.068;13.780;2023-04-16T11:16:13;19.50;1.00
6018;DHT22;3037;51.068;13.780;2023-04-16T11:18:39;19.40;1.00
6018;DHT22;3037;51.068;13.780;2023-04-16T11:21:08;19.20;1.00
6018;DHT22;3037;51.068;13.780;2023-04-16T11:23:51;19.30;1.00
6018;DHT22;3037;51.068;13.780;2023-04-16T11:26:24;19.80;1.00
6018;DHT22;3037;51.068;13.780;2023-04-16T11:28:51;19.40;1.00
6018;DHT22;3037;51.068;13.780;2023-04-16T11:31:17;19.50;1.00
6018;DHT22;3037;51.068;13.780;2023-04-16T11:33:43;19.20;1.00
6018;DHT22;3037;51.068;13.780;2023-04-16T11:36:08;19.80;1.00
6018;DHT22;3037;51.068;13.780;2023-04-16T11:38:38;19.10;1.00
6018;DHT22;3037;51.068;13.780;2023-04-16T11:41:05;18.90;1.00
6018;DHT22;3037;51.068;13.780;2023-04-16T11:43:31;18.90;1.00
6018;DHT22;3037;51.068;13.780;2023-04-16T11:46:04;19.10;1.00
6018;DHT22;3037;51.068;13.780;2023-04-16T11:48:50;18.60;1.00
6018;DHT22;3037;51.068;13.780;2023-04-16T11:51:17;18.70;1.00
6018;DHT22;3037;51.068;13.780;2023-04-16T11:53:53;18.80;1.00
6018;DHT22;3037;51.068;13.780;2023-04-16T11:56:29;19.30;1.00
6018;DHT22;3037;51.068;13.780;2023-04-16T11:59:12;19.40;1.00
6018;DHT22;3037;51.068;13.780;2023-04-16T12:01:39;19.10;1.00
6018;DHT22;3037;51.068;13.780;2023-04-16T12:04:05;18.80;1.00
6018;DHT22;3037;51.068;13.780;2023-04-16T12:06:31;18.70;1.00
6018;DHT22;3037;51.068;13.780;2023-04-16T12:08:57;18.70;1.00
6018;DHT22;3037;51.068;13.780;2023-04-16T12:11:42;18.20;1.00
6018;DHT22;3037;51.068;13.780;2023-04-16T12:14:11;18.80;1.00
6018;DHT22;3037;51.068;13.780;2023-04-16T12:16:37;18.50;1.00
6018;DHT22;3037;51.068;13.780;2023-04-16T12:19:04;18.60;1.00
6018;DHT22;3037;51.068;13.780;2023-04-16T12:21:42;18.90;1.00
6018;DHT22;3037;51.068;13.780;2023-04-16T12:24:10;18.60;1.00
6018;DHT22;3037;51.068;13.780;2023-04-16T12:26:40;19.00;1.00
6018;DHT22;3037;51.068;13.780;2023-04-16T12:29:14;18.80;1.00
6018;DHT22;3037;51.068;13.780;2023-04-16T12:31:40;18.90;1.00
6018;DHT22;3037;51.068;13.780;2023-04-16T12:34:05;18.90;1.00
6018;DHT22;3037;51.068;13.780;2023-04-16T12:36:31;18.90;1.00
6018;DHT22;3037;51.068;13.780;2023-04-16T12:38:57;19.40;1.00
6018;DHT22;3037;51.068;13.780;2023-04-16T12:41:22;19.10;1.00
6018;DHT22;3037;51.068;13.780;2023-04-16T12:43:48;19.10;1.00
6018;DHT22;3037;51.068;13.780;2023-04-16T12:46:13;19.20;1.00
6018;DHT22;3037;51.068;13.780;2023-04-16T12:48:39;19.40;1.00
6018;DHT22;3037;51.068;13.780;2023-04-16T12:51:05;19.90;1.00
6018;DHT22;3037;51.068;13.780;2023-04-16T12:53:31;19.30;1.00
6018;DHT22;3037;51.068;13.780;2023-04-16T12:55:57;19.50;1.00
6018;DHT22;3037;51.068;13.780;2023-04-16T12:58:22;19.20;1.00
6018;DHT22;3037;51.068;13.780;2023-04-16T13:00:48;19.90;1.00
6018;DHT22;3037;51.068;13.780;2023-04-16T13:03:13;19.80;1.00
6018;DHT22;3037;51.068;13.780;2023-04-16T13:05:39;19.60;1.00
6018;DHT22;3037;51.068;13.780;2023-04-16T13:08:05;19.00;1.00
6018;DHT22;3037;51.068;13.780;2023-04-16T13:10:30;19.30;1.00
6018;DHT22;3037;51.068;13.780;2023-04-16T13:12:56;19.20;1.00
6018;DHT22;3037;51.068;13.780;2023-04-16T13:15:21;18.80;1.00
6018;DHT22;3037;51.068;13.780;2023-04-16T13:17:47;18.90;1.00
6018;DHT22;3037;51.068;13.780;2023-04-16T13:20:12;18.90;1.00
6018;DHT22;3037;51.068;13.780;2023-04-16T13:22:38;18.90;1.00
6018;DHT22;3037;51.068;13.780;2023-04-16T13:25:04;18.70;1.00
6018;DHT22;3037;51.068;13.780;2023-04-16T13:27:30;18.60;1.00
6018;DHT22;3037;51.068;13.780;2023-04-16T13:29:56;18.60;1.00
6018;DHT22;3037;51.068;13.780;2023-04-16T13:32:22;18.50;1.00
6018;DHT22;3037;51.068;13.780;2023-04-16T13:34:47;18.70;1.00
6018;DHT22;3037;51.068;13.780;2023-04-16T13:37:13;18.60;1.00
6018;DHT22;3037;51.068;13.780;2023-04-16T13:39:39;18.60;1.00
6018;DHT22;3037;51.068;13.780;2023-04-16T13:42:04;18.20;1.00
6018;DHT22;3037;51.068;13.780;2023-04-16T13:44:30;17.90;1.00
6018;DHT22;3037;51.068;13.780;2023-04-16T13:46:56;17.70;1.00
6018;DHT22;3037;51.068;13.780;2023-04-16T13:49:21;17.60;1.00
6018;DHT22;3037;51.068;13.780;2023-04-16T13:51:47;17.80;1.00
6018;DHT22;3037;51.068;13.780;2023-04-16T13:54:13;17.80;1.00
6018;DHT22;3037;51.068;13.780;2023-04-16T13:56:39;17.80;1.00
6018;DHT22;3037;51.068;13.780;2023-04-16T13:59:05;17.80;1.00
6018;DHT22;3037;51.068;13.780;2023-04-16T14:01:30;17.80;1.00
6018;DHT22;3037;51.068;13.780;2023-04-16T14:03:56;18.00;1.00
6018;DHT22;3037;51.068;13.780;2023-04-16T14:06:21;18.20;1.00
6018;DHT22;3037;51.068;13.780;2023-04-16T14:08:47;17.80;1.00
6018;DHT22;3037;51.068;13.780;2023-04-16T14:11:12;17.70;1.00
6018;DHT22;3037;51.068;13.780;2023-04-16T14:13:38;18.20;1.00
6018;DHT22;3037;51.068;13.780;2023-04-16T14:16:04;18.20;1.00
6018;DHT22;3037;51.068;13.780;2023-04-16T14:18:29;18.20;1.00
6018;DHT22;3037;51.068;13.780;2023-04-16T14:20:55;18.10;1.00
6018;DHT22;3037;51.068;13.780;2023-04-16T14:23:20;17.80;1.00
6018;DHT22;3037;51.068;13.780;2023-04-16T14:25:46;17.60;1.60
6018;DHT22;3037;51.068;13.780;2023-04-16T14:28:11;17.10;99.90
6018;DHT22;3037;51.068;13.780;2023-04-16T14:30:37;16.80;1.00
6018;DHT22;3037;51.068;13.780;2023-04-16T14:33:04;16.60;99.90
6018;DHT22;3037;51.068;13.780;2023-04-16T14:35:30;16.50;1.00
6018;DHT22;3037;51.068;13.780;2023-04-16T14:37:57;16.10;1.00
6018;DHT22;3037;51.068;13.780;2023-04-16T14:40:23;15.80;99.90
6018;DHT22;3037;51.068;13.780;2023-04-16T14:42:48;15.80;1.00
6018;DHT22;3037;51.068;13.780;2023-04-16T14:45:14;15.60;1.00
6018;DHT22;3037;51.068;13.780;2023-04-16T14:47:40;15.40;99.90
6018;DHT22;3037;51.068;13.780;2023-04-16T14:50:11;15.50;1.00
6018;DHT22;3037;51.068;13.780;2023-04-16T14:52:36;15.30;1.00
6018;DHT22;3037;51.068;13.780;2023-04-16T14:55:02;15.30;1.00
6018;DHT22;3037;51.068;13.780;2023-04-16T14:57:27;15.30;1.00
6018;DHT22;3037;51.068;13.780;2023-04-16T14:59:53;15.30;1.00
6018;DHT22;3037;51.068;13.780;2023-04-16T15:02:18;15.30;1.00
6018;DHT22;3037;51.068;13.780;2023-04-16T15:04:44;15.10;1.00
6018;DHT22;3037;51.068;13.780;2023-04-16T15:07:10;15.20;1.00
6018;DHT22;3037;51.068;13.780;2023-04-16T15:09:35;15.20;1.00
6018;DHT22;3037;51.068;13.780;2023-04-16T15:12:01;14.90;1.00
6018;DHT22;3037;51.068;13.780;2023-04-16T15:14:26;14.90;1.00
6018;DHT22;3037;51.068;13.780;2023-04-16T15:16:52;14.70;1.00
6018;DHT22;3037;51.068;13.780;2023-04-16T15:19:18;14.60;1.00
6018;DHT22;3037;51.068;13.780;2023-04-16T15:21:43;14.70;99.90
6018;DHT22;3037;51.068;13.780;2023-04-16T15:24:09;14.50;5.90
6018;DHT22;3037;51.068;13.780;2023-04-16T15:26:35;14.50;1.00
6018;DHT22;3037;51.068;13.780;2023-04-16T15:29:01;14.30;99.90
6018;DHT22;3037;51.068;13.780;2023-04-16T15:31:26;14.00;1.00
6018;DHT22;3037;51.068;13.780;2023-04-16T15:33:52;14.10;1.00
6018;DHT22;3037;51.068;13.780;2023-04-16T15:36:18;14.10;45.40
6018;DHT22;3037;51.068;13.780;2023-04-16T15:38:45;14.40;99.90
6018;DHT22;3037;51.068;13.780;2023-04-16T15:41:10;14.20;99.90
6018;DHT22;3037;51.068;13.780;2023-04-16T15:43:36;14.00;99.90
6018;DHT22;3037;51.068;13.780;2023-04-16T15:46:02;14.10;1.00
6018;DHT22;3037;51.068;13.780;2023-04-16T15:48:27;14.00;99.90
6018;DHT22;3037;51.068;13.780;2023-04-16T15:50:53;13.90;1.00
6018;DHT22;3037;51.068;13.780;2023-04-16T15:53:19;14.10;1.00
6018;DHT22;3037;51.068;13.780;2023-04-16T15:55:44;14.10;1.00
6018;DHT22;3037;51.068;13.780;2023-04-16T15:58:10;14.10;1.00